North Haven, Mississippi
Current Conditions -  °F | °C
As of 9:53 AM on Wednesday 26 Nov 2014 (Local Time) from KTUP Reporting Station
Clear Clear  
Wind Chill: 41°   Ceiling: Unl
Heat Index: 45°   Visibility: 10mi
Dew Point: 30°   Wind: 7mph
Humidity: 56%   Direction: 190°S
Pressure: 30.18"   Gusts: NA
Location:  34.4917°N, 88.9766°W
Report Text: KTUP 261553Z 19006KT 10SM CLR 07/M01 A3018 RMK AO2 SLP220 T00721011
Loading
Personal Weather Stations






























Interactive Weather Map New forecast layout! Learn more

10-Day Weather Forecast

Advertisements
Track Severe Weather on mobile